sensor_id;sensor_type;location;lat;lon;timestamp;pressure;altitude;pressure_sealevel;temperature;humidity
39083;BME280;24834;44.444;26.098;2023-10-09T05:06:49;101610.50;;;13.29;
39083;BME280;24834;44.444;26.098;2023-10-09T08:28:24;101650.22;;;18.07;
39083;BME280;24834;44.444;26.098;2023-10-09T08:34:49;101649.97;;;18.39;
39083;BME280;24834;44.444;26.098;2023-10-09T08:41:06;101639.91;;;18.58;
39083;BME280;24834;44.444;26.098;2023-10-09T08:47:13;101639.69;;;18.24;
39083;BME280;24834;44.444;26.098;2023-10-09T08:53:18;101637.75;;;18.91;
39083;BME280;24834;44.444;26.098;2023-10-09T08:59:21;101635.91;;;18.92;
39083;BME280;24834;44.444;26.098;2023-10-09T09:05:28;101626.75;;;18.93;
39083;BME280;24834;44.444;26.098;2023-10-09T09:11:41;101637.91;;;18.95;
39083;BME280;24834;44.444;26.098;2023-10-09T09:18:04;101598.41;;;18.97;
39083;BME280;24834;44.444;26.098;2023-10-09T09:24:13;101600.03;;;18.75;
39083;BME280;24834;44.444;26.098;2023-10-09T09:30:27;101599.28;;;18.84;
39083;BME280;24834;44.444;26.098;2023-10-09T09:36:56;101612.94;;;19.30;
39083;BME280;24834;44.444;26.098;2023-10-09T09:43:00;101595.31;;;19.12;
39083;BME280;24834;44.444;26.098;2023-10-09T09:49:29;101580.13;;;19.29;
39083;BME280;24834;44.444;26.098;2023-10-09T09:55:38;101569.13;;;19.05;
39083;BME280;24834;44.444;26.098;2023-10-09T10:02:01;101558.19;;;19.32;
39083;BME280;24834;44.444;26.098;2023-10-09T10:08:26;101537.81;;;19.54;
39083;BME280;24834;44.444;26.098;2023-10-09T10:14:53;101527.44;;;19.61;
39083;BME280;24834;44.444;26.098;2023-10-09T10:21:12;101507.53;;;19.75;
39083;BME280;24834;44.444;26.098;2023-10-09T10:27:39;101501.06;;;19.42;
39083;BME280;24834;44.444;26.098;2023-10-09T10:34:04;101474.56;;;19.71;
39083;BME280;24834;44.444;26.098;2023-10-09T10:40:10;101468.03;;;20.36;
39083;BME280;24834;44.444;26.098;2023-10-09T10:46:27;101438.63;;;19.17;
39083;BME280;24834;44.444;26.098;2023-10-09T10:52:47;101412.34;;;19.88;
39083;BME280;24834;44.444;26.098;2023-10-09T10:59:06;101387.34;;;20.22;
39083;BME280;24834;44.444;26.098;2023-10-09T11:05:10;101362.88;;;20.61;
39083;BME280;24834;44.444;26.098;2023-10-09T11:11:31;101350.84;;;20.05;
39083;BME280;24834;44.444;26.098;2023-10-09T11:18:06;101343.59;;;20.76;
39083;BME280;24834;44.444;26.098;2023-10-09T11:24:36;101339.84;;;21.22;
39083;BME280;24834;44.444;26.098;2023-10-09T11:30:42;101318.44;;;21.22;
39083;BME280;24834;44.444;26.098;2023-10-09T11:36:52;101321.25;;;20.81;
39083;BME280;24834;44.444;26.098;2023-10-09T11:43:01;101293.25;;;20.57;
39083;BME280;24834;44.444;26.098;2023-10-09T11:49:09;101286.25;;;21.42;
39083;BME280;24834;44.444;26.098;2023-10-09T11:55:30;101276.22;;;21.64;
39083;BME280;24834;44.444;26.098;2023-10-09T12:01:35;101284.75;;;20.97;
39083;BME280;24834;44.444;26.098;2023-10-09T12:07:47;101259.06;;;21.28;
39083;BME280;24834;44.444;26.098;2023-10-09T12:13:58;101232.47;;;21.11;
39083;BME280;24834;44.444;26.098;2023-10-09T12:20:07;101226.81;;;21.01;
39083;BME280;24834;44.444;26.098;2023-10-09T12:26:18;101222.91;;;21.10;
39083;BME280;24834;44.444;26.098;2023-10-09T12:32:23;101223.63;;;20.75;
39083;BME280;24834;44.444;26.098;2023-10-09T12:38:29;101219.88;;;20.43;
39083;BME280;24834;44.444;26.098;2023-10-09T12:44:37;101191.22;;;20.88;
39083;BME280;24834;44.444;26.098;2023-10-09T12:50:53;101214.09;;;21.10;
39083;BME280;24834;44.444;26.098;2023-10-09T12:57:00;101213.84;;;20.46;
39083;BME280;24834;44.444;26.098;2023-10-09T13:03:07;101194.91;;;19.97;
39083;BME280;24834;44.444;26.098;2023-10-09T13:09:21;101174.97;;;20.36;
39083;BME280;24834;44.444;26.098;2023-10-09T13:15:40;101160.63;;;20.20;
39083;BME280;24834;44.444;26.098;2023-10-09T13:21:46;101148.03;;;20.08;
39083;BME280;24834;44.444;26.098;2023-10-09T13:28:05;101120.09;;;20.06;
39083;BME280;24834;44.444;26.098;2023-10-09T13:34:09;101106.63;;;20.15;
39083;BME280;24834;44.444;26.098;2023-10-09T13:40:22;101108.16;;;20.36;
39083;BME280;24834;44.444;26.098;2023-10-09T13:46:31;101109.59;;;20.34;
39083;BME280;24834;44.444;26.098;2023-10-09T13:52:37;101098.75;;;20.51;
39083;BME280;24834;44.444;26.098;2023-10-09T13:58:51;101090.97;;;20.82;
39083;BME280;24834;44.444;26.098;2023-10-09T14:04:57;101088.06;;;20.75;
39083;BME280;24834;44.444;26.098;2023-10-09T14:11:04;101070.25;;;20.55;
39083;BME280;24834;44.444;26.098;2023-10-09T14:17:17;101057.00;;;20.83;
39083;BME280;24834;44.444;26.098;2023-10-09T14:23:32;101047.75;;;21.04;
39083;BME280;24834;44.444;26.098;2023-10-09T14:29:38;101027.81;;;20.78;
39083;BME280;24834;44.444;26.098;2023-10-09T14:35:46;101017.22;;;20.81;
39083;BME280;24834;44.444;26.098;2023-10-09T14:41:49;101009.97;;;20.09;
39083;BME280;24834;44.444;26.098;2023-10-09T14:47:56;100994.94;;;20.17;
39083;BME280;24834;44.444;26.098;2023-10-09T14:54:05;100996.06;;;19.71;
39083;BME280;24834;44.444;26.098;2023-10-09T15:00:10;100998.75;;;19.71;
39083;BME280;24834;44.444;26.098;2023-10-09T15:06:19;100993.69;;;19.57;
39083;BME280;24834;44.444;26.098;2023-10-09T15:12:22;101007.72;;;19.46;
39083;BME280;24834;44.444;26.098;2023-10-09T15:18:25;100999.91;;;19.20;
39083;BME280;24834;44.444;26.098;2023-10-09T15:24:31;100999.53;;;19.30;
39083;BME280;24834;44.444;26.098;2023-10-09T15:30:39;101003.16;;;19.05;
39083;BME280;24834;44.444;26.098;2023-10-09T15:36:47;100992.25;;;19.18;
39083;BME280;24834;44.444;26.098;2023-10-09T15:42:50;100978.53;;;19.08;
39083;BME280;24834;44.444;26.098;2023-10-09T15:48:54;100963.16;;;19.05;
39083;BME280;24834;44.444;26.098;2023-10-09T15:54:59;100952.19;;;19.27;
39083;BME280;24834;44.444;26.098;2023-10-09T16:01:05;100942.69;;;19.17;
39083;BME280;24834;44.444;26.098;2023-10-09T16:07:07;100957.13;;;18.96;
39083;BME280;24834;44.444;26.098;2023-10-09T16:13:12;100948.34;;;18.95;
39083;BME280;24834;44.444;26.098;2023-10-09T16:19:15;100954.09;;;18.76;
39083;BME280;24834;44.444;26.098;2023-10-09T16:25:19;100939.81;;;18.81;
39083;BME280;24834;44.444;26.098;2023-10-09T16:31:28;100934.59;;;18.64;
39083;BME280;24834;44.444;26.098;2023-10-09T16:37:42;100931.78;;;18.60;
39083;BME280;24834;44.444;26.098;2023-10-09T16:43:46;100935.63;;;18.42;
39083;BME280;24834;44.444;26.098;2023-10-09T16:49:51;100927.78;;;18.46;
39083;BME280;24834;44.444;26.098;2023-10-09T16:55:56;100929.25;;;18.35;
39083;BME280;24834;44.444;26.098;2023-10-09T17:02:02;100931.41;;;18.41;
39083;BME280;24834;44.444;26.098;2023-10-09T17:08:15;100931.53;;;18.45;
39083;BME280;24834;44.444;26.098;2023-10-09T17:14:21;100928.59;;;18.38;
39083;BME280;24834;44.444;26.098;2023-10-09T17:20:31;100921.75;;;18.28;
39083;BME280;24834;44.444;26.098;2023-10-09T17:26:36;100933.31;;;18.32;
39083;BME280;24834;44.444;26.098;2023-10-09T17:32:44;100906.16;;;18.18;
39083;BME280;24834;44.444;26.098;2023-10-09T17:38:51;100899.72;;;18.19;
39083;BME280;24834;44.444;26.098;2023-10-09T17:44:57;100891.09;;;18.22;
39083;BME280;24834;44.444;26.098;2023-10-09T17:51:03;100892.34;;;18.16;
39083;BME280;24834;44.444;26.098;2023-10-09T17:57:12;100896.56;;;18.26;
39083;BME280;24834;44.444;26.098;2023-10-09T18:03:15;100899.53;;;18.24;
39083;BME280;24834;44.444;26.098;2023-10-09T18:09:21;100904.13;;;18.44;
39083;BME280;24834;44.444;26.098;2023-10-09T18:15:25;100914.25;;;18.30;
39083;BME280;24834;44.444;26.098;2023-10-09T18:21:29;100911.22;;;18.40;
39083;BME280;24834;44.444;26.098;2023-10-09T18:27:36;100898.81;;;18.44;
39083;BME280;24834;44.444;26.098;2023-10-09T18:33:43;100883.97;;;18.35;
39083;BME280;24834;44.444;26.098;2023-10-09T18:39:46;100891.25;;;18.46;
39083;BME280;24834;44.444;26.098;2023-10-09T18:45:51;100865.75;;;18.45;
39083;BME280;24834;44.444;26.098;2023-10-09T18:51:54;100849.13;;;18.48;
39083;BME280;24834;44.444;26.098;2023-10-09T18:58:06;100847.75;;;18.42;
39083;BME280;24834;44.444;26.098;2023-10-09T19:04:20;100847.75;;;18.42;
39083;BME280;24834;44.444;26.098;2023-10-09T19:10:25;100846.34;;;18.45;
39083;BME280;24834;44.444;26.098;2023-10-09T19:16:30;100853.47;;;18.53;
39083;BME280;24834;44.444;26.098;2023-10-09T19:22:34;100865.56;;;18.50;
39083;BME280;24834;44.444;26.098;2023-10-09T19:28:44;100858.03;;;18.52;
39083;BME280;24834;44.444;26.098;2023-10-09T19:34:47;100853.22;;;18.46;
39083;BME280;24834;44.444;26.098;2023-10-09T19:40:50;100839.03;;;18.33;
39083;BME280;24834;44.444;26.098;2023-10-09T19:46:54;100838.22;;;18.33;
39083;BME280;24834;44.444;26.098;2023-10-09T19:52:57;100824.03;;;18.29;
39083;BME280;24834;44.444;26.098;2023-10-09T19:58:59;100821.53;;;18.24;
39083;BME280;24834;44.444;26.098;2023-10-09T20:05:02;100847.59;;;18.18;
39083;BME280;24834;44.444;26.098;2023-10-09T20:11:10;100846.22;;;18.12;
39083;BME280;24834;44.444;26.098;2023-10-09T20:17:17;100857.47;;;18.09;
39083;BME280;24834;44.444;26.098;2023-10-09T20:23:19;100869.50;;;18.15;
39083;BME280;24834;44.444;26.098;2023-10-09T20:29:22;100861.66;;;18.18;
39083;BME280;24834;44.444;26.098;2023-10-09T20:35:27;100854.13;;;18.21;
39083;BME280;24834;44.444;26.098;2023-10-09T20:41:30;100856.78;;;18.21;
39083;BME280;24834;44.444;26.098;2023-10-09T20:47:33;100851.94;;;18.14;
39083;BME280;24834;44.444;26.098;2023-10-09T20:53:38;100824.44;;;18.10;
39083;BME280;24834;44.444;26.098;2023-10-09T20:59:41;100840.88;;;18.12;
39083;BME280;24834;44.444;26.098;2023-10-09T21:05:46;100857.94;;;18.11;
39083;BME280;24834;44.444;26.098;2023-10-09T21:11:48;100852.03;;;17.97;
39083;BME280;24834;44.444;26.098;2023-10-09T21:17:52;100843.59;;;17.95;
39083;BME280;24834;44.444;26.098;2023-10-09T21:23:58;100841.59;;;17.83;
39083;BME280;24834;44.444;26.098;2023-10-09T21:30:05;100830.03;;;17.79;
39083;BME280;24834;44.444;26.098;2023-10-09T21:36:08;100842.25;;;17.80;
39083;BME280;24834;44.444;26.098;2023-10-09T21:42:11;100844.31;;;17.75;
39083;BME280;24834;44.444;26.098;2023-10-09T21:48:14;100835.66;;;17.78;
39083;BME280;24834;44.444;26.098;2023-10-09T21:54:22;100825.50;;;17.71;
39083;BME280;24834;44.444;26.098;2023-10-09T22:00:31;100823.69;;;17.63;
39083;BME280;24834;44.444;26.098;2023-10-09T22:06:34;100814.00;;;17.41;
39083;BME280;24834;44.444;26.098;2023-10-09T22:12:38;100816.84;;;17.36;
39083;BME280;24834;44.444;26.098;2023-10-09T22:18:42;100808.91;;;17.28;
39083;BME280;24834;44.444;26.098;2023-10-09T22:24:51;100810.16;;;17.13;
39083;BME280;24834;44.444;26.098;2023-10-09T22:30:55;100813.13;;;17.03;
39083;BME280;24834;44.444;26.098;2023-10-09T22:37:04;100803.91;;;16.92;
39083;BME280;24834;44.444;26.098;2023-10-09T22:43:18;100802.03;;;16.84;
39083;BME280;24834;44.444;26.098;2023-10-09T22:49:27;100793.75;;;16.77;
39083;BME280;24834;44.444;26.098;2023-10-09T22:55:38;100793.44;;;16.70;
39083;BME280;24834;44.444;26.098;2023-10-09T23:01:49;100791.72;;;16.74;
39083;BME280;24834;44.444;26.098;2023-10-09T23:07:58;100784.69;;;16.78;
39083;BME280;24834;44.444;26.098;2023-10-09T23:14:04;100794.84;;;16.76;
39083;BME280;24834;44.444;26.098;2023-10-09T23:20:32;100798.13;;;16.73;
39083;BME280;24834;44.444;26.098;2023-10-09T23:26:49;100798.13;;;16.73;
39083;BME280;24834;44.444;26.098;2023-10-09T23:32:58;100797.81;;;16.66;
39083;BME280;24834;44.444;26.098;2023-10-09T23:39:20;100801.06;;;16.63;
39083;BME280;24834;44.444;26.098;2023-10-09T23:45:43;100796.09;;;16.61;
39083;BME280;24834;44.444;26.098;2023-10-09T23:51:49;100792.97;;;16.59;
39083;BME280;24834;44.444;26.098;2023-10-09T23:57:59;100794.34;;;16.57;
